sensor_id;sensor_type;location;lat;lon;timestamp;P1;durP1;ratioP1;P2;durP2;ratioP2
79399;SDS011;68856;45.586;10.264;2023-04-30T00:00:19;17.55;;;12.68;;
79399;SDS011;68856;45.586;10.264;2023-04-30T00:02:45;15.55;;;11.77;;
79399;SDS011;68856;45.586;10.264;2023-04-30T00:05:12;18.60;;;13.38;;
79399;SDS011;68856;45.586;10.264;2023-04-30T00:07:38;18.15;;;13.52;;
79399;SDS011;68856;45.586;10.264;2023-04-30T00:10:07;18.55;;;12.57;;
79399;SDS011;68856;45.586;10.264;2023-04-30T00:12:34;19.25;;;12.43;;
79399;SDS011;68856;45.586;10.264;2023-04-30T00:15:01;17.65;;;13.20;;
79399;SDS011;68856;45.586;10.264;2023-04-30T00:17:28;19.00;;;13.35;;
79399;SDS011;68856;45.586;10.264;2023-04-30T00:19:54;20.02;;;14.10;;
79399;SDS011;68856;45.586;10.264;2023-04-30T00:22:20;20.75;;;14.15;;
79399;SDS011;68856;45.586;10.264;2023-04-30T00:24:46;19.90;;;13.82;;
79399;SDS011;68856;45.586;10.264;2023-04-30T00:27:13;20.98;;;13.60;;
79399;SDS011;68856;45.586;10.264;2023-04-30T00:29:39;20.73;;;13.25;;
79399;SDS011;68856;45.586;10.264;2023-04-30T00:32:05;19.38;;;13.90;;
79399;SDS011;68856;45.586;10.264;2023-04-30T00:34:32;24.98;;;14.57;;
79399;SDS011;68856;45.586;10.264;2023-04-30T00:36:58;23.88;;;13.77;;
79399;SDS011;68856;45.586;10.264;2023-04-30T00:39:24;18.92;;;13.90;;
79399;SDS011;68856;45.586;10.264;2023-04-30T00:41:50;20.25;;;14.90;;
79399;SDS011;68856;45.586;10.264;2023-04-30T00:44:16;20.60;;;14.48;;
79399;SDS011;68856;45.586;10.264;2023-04-30T00:46:43;17.70;;;13.35;;
79399;SDS011;68856;45.586;10.264;2023-04-30T00:49:09;21.92;;;14.55;;
79399;SDS011;68856;45.586;10.264;2023-04-30T00:51:35;22.00;;;14.27;;
79399;SDS011;68856;45.586;10.264;2023-04-30T00:54:04;25.55;;;14.25;;
79399;SDS011;68856;45.586;10.264;2023-04-30T00:56:32;17.05;;;11.43;;
79399;SDS011;68856;45.586;10.264;2023-04-30T00:58:59;14.85;;;11.30;;
79399;SDS011;68856;45.586;10.264;2023-04-30T01:01:25;14.85;;;11.10;;
79399;SDS011;68856;45.586;10.264;2023-04-30T01:06:22;17.15;;;12.43;;
79399;SDS011;68856;45.586;10.264;2023-04-30T01:08:50;16.20;;;12.38;;
79399;SDS011;68856;45.586;10.264;2023-04-30T01:12:02;16.65;;;11.93;;
79399;SDS011;68856;45.586;10.264;2023-04-30T01:19:45;14.05;;;10.55;;
79399;SDS011;68856;45.586;10.264;2023-04-30T01:22:56;14.23;;;10.43;;
79399;SDS011;68856;45.586;10.264;2023-04-30T01:30:28;17.48;;;11.93;;
79399;SDS011;68856;45.586;10.264;2023-04-30T01:32:58;13.45;;;10.88;;
79399;SDS011;68856;45.586;10.264;2023-04-30T01:35:33;12.73;;;9.30;;
79399;SDS011;68856;45.586;10.264;2023-04-30T01:46:28;14.65;;;9.45;;
79399;SDS011;68856;45.586;10.264;2023-04-30T01:51:44;15.68;;;10.95;;
79399;SDS011;68856;45.586;10.264;2023-04-30T01:54:23;14.95;;;10.98;;
79399;SDS011;68856;45.586;10.264;2023-04-30T01:57:00;15.13;;;11.63;;
79399;SDS011;68856;45.586;10.264;2023-04-30T01:59:32;13.55;;;9.77;;
79399;SDS011;68856;45.586;10.264;2023-04-30T02:02:00;13.35;;;9.48;;
79399;SDS011;68856;45.586;10.264;2023-04-30T02:04:27;14.43;;;10.18;;
79399;SDS011;68856;45.586;10.264;2023-04-30T02:06:53;15.10;;;9.93;;
79399;SDS011;68856;45.586;10.264;2023-04-30T02:09:19;13.45;;;9.32;;
79399;SDS011;68856;45.586;10.264;2023-04-30T02:11:48;15.02;;;10.65;;
79399;SDS011;68856;45.586;10.264;2023-04-30T02:14:14;12.88;;;9.52;;
79399;SDS011;68856;45.586;10.264;2023-04-30T02:16:41;13.98;;;9.95;;
79399;SDS011;68856;45.586;10.264;2023-04-30T02:19:07;15.43;;;10.68;;
79399;SDS011;68856;45.586;10.264;2023-04-30T02:21:33;14.40;;;10.20;;
79399;SDS011;68856;45.586;10.264;2023-04-30T02:24:00;15.52;;;10.80;;
79399;SDS011;68856;45.586;10.264;2023-04-30T02:26:26;16.60;;;11.27;;
79399;SDS011;68856;45.586;10.264;2023-04-30T02:28:52;13.25;;;10.60;;
79399;SDS011;68856;45.586;10.264;2023-04-30T02:31:18;13.40;;;10.50;;
79399;SDS011;68856;45.586;10.264;2023-04-30T02:33:45;17.13;;;12.13;;
79399;SDS011;68856;45.586;10.264;2023-04-30T02:36:11;16.25;;;11.25;;
79399;SDS011;68856;45.586;10.264;2023-04-30T02:38:37;15.20;;;10.85;;
79399;SDS011;68856;45.586;10.264;2023-04-30T02:41:03;13.40;;;11.02;;
79399;SDS011;68856;45.586;10.264;2023-04-30T02:43:29;14.75;;;11.15;;
79399;SDS011;68856;45.586;10.264;2023-04-30T02:45:56;16.73;;;11.07;;
79399;SDS011;68856;45.586;10.264;2023-04-30T02:48:22;15.35;;;10.75;;
79399;SDS011;68856;45.586;10.264;2023-04-30T02:50:48;17.55;;;11.90;;
79399;SDS011;68856;45.586;10.264;2023-04-30T02:53:15;16.42;;;11.27;;
79399;SDS011;68856;45.586;10.264;2023-04-30T02:55:41;16.08;;;11.35;;
79399;SDS011;68856;45.586;10.264;2023-04-30T02:58:07;15.00;;;11.18;;
79399;SDS011;68856;45.586;10.264;2023-04-30T03:00:33;14.90;;;9.65;;
79399;SDS011;68856;45.586;10.264;2023-04-30T03:02:59;13.13;;;9.95;;
79399;SDS011;68856;45.586;10.264;2023-04-30T03:05:27;16.48;;;8.93;;
79399;SDS011;68856;45.586;10.264;2023-04-30T03:07:54;14.23;;;9.52;;
79399;SDS011;68856;45.586;10.264;2023-04-30T03:10:20;11.73;;;9.52;;
79399;SDS011;68856;45.586;10.264;2023-04-30T03:12:46;14.80;;;8.95;;
79399;SDS011;68856;45.586;10.264;2023-04-30T03:15:12;15.10;;;9.75;;
79399;SDS011;68856;45.586;10.264;2023-04-30T03:17:39;12.80;;;9.27;;
79399;SDS011;68856;45.586;10.264;2023-04-30T03:20:05;13.23;;;9.88;;
79399;SDS011;68856;45.586;10.264;2023-04-30T03:22:32;14.20;;;9.57;;
79399;SDS011;68856;45.586;10.264;2023-04-30T03:24:58;12.85;;;9.80;;
79399;SDS011;68856;45.586;10.264;2023-04-30T03:27:25;12.40;;;9.55;;
79399;SDS011;68856;45.586;10.264;2023-04-30T03:29:51;14.38;;;9.98;;
79399;SDS011;68856;45.586;10.264;2023-04-30T03:32:17;16.05;;;10.10;;
79399;SDS011;68856;45.586;10.264;2023-04-30T03:34:43;12.88;;;9.43;;
79399;SDS011;68856;45.586;10.264;2023-04-30T03:37:10;12.77;;;9.52;;
79399;SDS011;68856;45.586;10.264;2023-04-30T03:39:36;13.57;;;8.68;;
79399;SDS011;68856;45.586;10.264;2023-04-30T03:42:02;11.32;;;8.95;;
79399;SDS011;68856;45.586;10.264;2023-04-30T03:44:28;10.02;;;7.85;;
79399;SDS011;68856;45.586;10.264;2023-04-30T03:46:55;10.57;;;8.20;;
79399;SDS011;68856;45.586;10.264;2023-04-30T03:49:21;10.23;;;8.43;;
79399;SDS011;68856;45.586;10.264;2023-04-30T03:51:47;10.93;;;8.80;;
79399;SDS011;68856;45.586;10.264;2023-04-30T03:54:13;13.93;;;9.65;;
79399;SDS011;68856;45.586;10.264;2023-04-30T03:56:40;13.10;;;8.20;;
79399;SDS011;68856;45.586;10.264;2023-04-30T03:59:06;13.27;;;9.57;;
79399;SDS011;68856;45.586;10.264;2023-04-30T04:01:32;12.27;;;8.73;;
79399;SDS011;68856;45.586;10.264;2023-04-30T04:03:59;15.23;;;8.93;;
79399;SDS011;68856;45.586;10.264;2023-04-30T04:06:25;11.80;;;9.07;;
79399;SDS011;68856;45.586;10.264;2023-04-30T04:08:51;15.00;;;10.75;;
79399;SDS011;68856;45.586;10.264;2023-04-30T04:11:18;15.07;;;10.73;;
79399;SDS011;68856;45.586;10.264;2023-04-30T04:13:44;14.20;;;10.10;;
79399;SDS011;68856;45.586;10.264;2023-04-30T04:16:11;15.38;;;10.55;;
79399;SDS011;68856;45.586;10.264;2023-04-30T04:18:37;14.93;;;10.25;;
79399;SDS011;68856;45.586;10.264;2023-04-30T04:21:03;14.70;;;10.55;;
79399;SDS011;68856;45.586;10.264;2023-04-30T04:23:29;15.75;;;10.02;;
79399;SDS011;68856;45.586;10.264;2023-04-30T04:25:55;15.68;;;10.13;;
79399;SDS011;68856;45.586;10.264;2023-04-30T04:28:22;14.80;;;10.20;;
79399;SDS011;68856;45.586;10.264;2023-04-30T04:30:48;12.73;;;9.50;;
79399;SDS011;68856;45.586;10.264;2023-04-30T04:33:14;13.27;;;10.00;;
79399;SDS011;68856;45.586;10.264;2023-04-30T04:35:41;15.48;;;10.50;;
79399;SDS011;68856;45.586;10.264;2023-04-30T04:38:08;16.52;;;11.07;;
79399;SDS011;68856;45.586;10.264;2023-04-30T04:40:34;14.70;;;10.15;;
79399;SDS011;68856;45.586;10.264;2023-04-30T04:43:01;15.68;;;11.18;;
79399;SDS011;68856;45.586;10.264;2023-04-30T04:45:27;14.38;;;11.25;;
79399;SDS011;68856;45.586;10.264;2023-04-30T04:47:54;15.73;;;10.55;;
79399;SDS011;68856;45.586;10.264;2023-04-30T04:50:20;14.07;;;10.90;;
79399;SDS011;68856;45.586;10.264;2023-04-30T04:52:46;16.98;;;10.52;;
79399;SDS011;68856;45.586;10.264;2023-04-30T04:55:13;16.42;;;11.63;;
79399;SDS011;68856;45.586;10.264;2023-04-30T04:57:39;16.77;;;11.05;;
79399;SDS011;68856;45.586;10.264;2023-04-30T05:00:06;17.23;;;12.82;;
79399;SDS011;68856;45.586;10.264;2023-04-30T05:02:34;17.02;;;12.10;;
79399;SDS011;68856;45.586;10.264;2023-04-30T05:05:00;17.42;;;11.95;;
79399;SDS011;68856;45.586;10.264;2023-04-30T05:07:27;18.40;;;11.50;;
79399;SDS011;68856;45.586;10.264;2023-04-30T05:09:54;16.92;;;11.35;;
79399;SDS011;68856;45.586;10.264;2023-04-30T05:12:20;16.60;;;10.90;;
79399;SDS011;68856;45.586;10.264;2023-04-30T05:14:46;17.25;;;11.48;;
79399;SDS011;68856;45.586;10.264;2023-04-30T05:17:15;18.25;;;11.45;;
79399;SDS011;68856;45.586;10.264;2023-04-30T05:19:41;18.80;;;11.77;;
79399;SDS011;68856;45.586;10.264;2023-04-30T05:22:08;16.15;;;11.73;;
79399;SDS011;68856;45.586;10.264;2023-04-30T05:24:34;17.98;;;12.48;;
79399;SDS011;68856;45.586;10.264;2023-04-30T05:27:01;16.73;;;12.18;;
79399;SDS011;68856;45.586;10.264;2023-04-30T05:29:29;14.18;;;10.60;;
79399;SDS011;68856;45.586;10.264;2023-04-30T05:31:55;16.05;;;12.10;;
79399;SDS011;68856;45.586;10.264;2023-04-30T05:34:22;20.13;;;12.45;;
79399;SDS011;68856;45.586;10.264;2023-04-30T05:36:48;18.55;;;13.15;;
79399;SDS011;68856;45.586;10.264;2023-04-30T05:39:14;19.15;;;12.55;;
79399;SDS011;68856;45.586;10.264;2023-04-30T05:41:41;19.63;;;12.88;;
79399;SDS011;68856;45.586;10.264;2023-04-30T05:44:07;18.83;;;12.40;;
79399;SDS011;68856;45.586;10.264;2023-04-30T05:46:33;20.80;;;12.63;;
79399;SDS011;68856;45.586;10.264;2023-04-30T05:49:00;16.10;;;12.13;;
79399;SDS011;68856;45.586;10.264;2023-04-30T05:51:26;22.00;;;13.30;;
79399;SDS011;68856;45.586;10.264;2023-04-30T05:53:53;17.35;;;12.65;;
79399;SDS011;68856;45.586;10.264;2023-04-30T05:56:21;19.30;;;12.38;;
79399;SDS011;68856;45.586;10.264;2023-04-30T05:58:48;16.50;;;12.07;;
79399;SDS011;68856;45.586;10.264;2023-04-30T06:01:17;18.50;;;13.30;;
79399;SDS011;68856;45.586;10.264;2023-04-30T06:03:44;19.98;;;12.65;;
79399;SDS011;68856;45.586;10.264;2023-04-30T06:06:11;19.92;;;12.60;;
79399;SDS011;68856;45.586;10.264;2023-04-30T06:08:37;18.58;;;13.85;;
79399;SDS011;68856;45.586;10.264;2023-04-30T06:11:08;18.90;;;13.57;;
79399;SDS011;68856;45.586;10.264;2023-04-30T06:13:37;20.23;;;13.43;;
79399;SDS011;68856;45.586;10.264;2023-04-30T06:16:05;18.50;;;12.50;;
79399;SDS011;68856;45.586;10.264;2023-04-30T06:18:32;19.13;;;13.05;;
79399;SDS011;68856;45.586;10.264;2023-04-30T06:20:58;19.92;;;13.68;;
79399;SDS011;68856;45.586;10.264;2023-04-30T06:23:24;22.27;;;12.93;;
79399;SDS011;68856;45.586;10.264;2023-04-30T06:25:51;19.25;;;12.30;;
79399;SDS011;68856;45.586;10.264;2023-04-30T06:28:17;19.20;;;13.25;;
79399;SDS011;68856;45.586;10.264;2023-04-30T06:30:43;18.65;;;11.60;;
79399;SDS011;68856;45.586;10.264;2023-04-30T06:33:10;18.10;;;12.50;;
79399;SDS011;68856;45.586;10.264;2023-04-30T06:35:36;18.23;;;12.77;;
79399;SDS011;68856;45.586;10.264;2023-04-30T06:38:02;17.20;;;12.38;;
79399;SDS011;68856;45.586;10.264;2023-04-30T06:40:28;17.65;;;13.23;;
79399;SDS011;68856;45.586;10.264;2023-04-30T06:42:55;19.25;;;13.15;;
79399;SDS011;68856;45.586;10.264;2023-04-30T06:45:21;18.35;;;13.20;;
79399;SDS011;68856;45.586;10.264;2023-04-30T06:47:47;19.17;;;13.55;;
79399;SDS011;68856;45.586;10.264;2023-04-30T06:50:13;19.73;;;13.15;;
79399;SDS011;68856;45.586;10.264;2023-04-30T06:52:40;23.73;;;17.05;;
79399;SDS011;68856;45.586;10.264;2023-04-30T06:55:06;18.55;;;12.73;;
79399;SDS011;68856;45.586;10.264;2023-04-30T06:57:33;18.17;;;13.25;;
79399;SDS011;68856;45.586;10.264;2023-04-30T07:00:02;17.17;;;12.75;;
79399;SDS011;68856;45.586;10.264;2023-04-30T07:02:29;19.70;;;13.43;;
79399;SDS011;68856;45.586;10.264;2023-04-30T07:04:56;18.00;;;13.02;;
79399;SDS011;68856;45.586;10.264;2023-04-30T07:07:22;18.48;;;13.20;;
79399;SDS011;68856;45.586;10.264;2023-04-30T07:09:49;17.52;;;12.52;;
79399;SDS011;68856;45.586;10.264;2023-04-30T07:12:16;17.52;;;13.13;;
79399;SDS011;68856;45.586;10.264;2023-04-30T07:14:42;16.83;;;13.27;;
79399;SDS011;68856;45.586;10.264;2023-04-30T07:17:08;22.45;;;14.02;;
79399;SDS011;68856;45.586;10.264;2023-04-30T07:19:35;21.65;;;13.23;;
79399;SDS011;68856;45.586;10.264;2023-04-30T07:22:01;19.60;;;13.93;;
79399;SDS011;68856;45.586;10.264;2023-04-30T07:24:28;18.77;;;13.73;;
79399;SDS011;68856;45.586;10.264;2023-04-30T07:26:55;19.27;;;13.15;;
79399;SDS011;68856;45.586;10.264;2023-04-30T07:29:23;18.27;;;14.38;;
79399;SDS011;68856;45.586;10.264;2023-04-30T07:31:49;18.42;;;12.88;;
79399;SDS011;68856;45.586;10.264;2023-04-30T07:34:15;18.73;;;13.32;;
79399;SDS011;68856;45.586;10.264;2023-04-30T07:36:42;17.05;;;13.10;;
79399;SDS011;68856;45.586;10.264;2023-04-30T07:39:08;19.63;;;14.35;;
79399;SDS011;68856;45.586;10.264;2023-04-30T07:41:35;18.52;;;14.15;;
79399;SDS011;68856;45.586;10.264;2023-04-30T07:44:01;17.20;;;13.35;;
79399;SDS011;68856;45.586;10.264;2023-04-30T07:46:28;19.77;;;13.52;;
79399;SDS011;68856;45.586;10.264;2023-04-30T07:48:55;19.73;;;13.82;;
79399;SDS011;68856;45.586;10.264;2023-04-30T07:51:21;17.00;;;12.88;;
79399;SDS011;68856;45.586;10.264;2023-04-30T07:53:47;19.05;;;13.35;;
79399;SDS011;68856;45.586;10.264;2023-04-30T07:56:14;19.55;;;13.65;;
79399;SDS011;68856;45.586;10.264;2023-04-30T07:58:40;18.90;;;13.77;;
79399;SDS011;68856;45.586;10.264;2023-04-30T08:01:06;17.98;;;13.10;;
79399;SDS011;68856;45.586;10.264;2023-04-30T08:03:32;16.88;;;13.05;;
79399;SDS011;68856;45.586;10.264;2023-04-30T08:05:58;18.70;;;13.15;;
79399;SDS011;68856;45.586;10.264;2023-04-30T08:08:25;18.80;;;13.38;;
79399;SDS011;68856;45.586;10.264;2023-04-30T08:10:51;19.63;;;13.63;;
79399;SDS011;68856;45.586;10.264;2023-04-30T08:13:17;18.42;;;13.20;;
79399;SDS011;68856;45.586;10.264;2023-04-30T08:15:44;12.68;;;10.02;;
79399;SDS011;68856;45.586;10.264;2023-04-30T08:18:10;15.55;;;10.25;;
79399;SDS011;68856;45.586;10.264;2023-04-30T08:20:37;13.93;;;10.20;;
79399;SDS011;68856;45.586;10.264;2023-04-30T08:23:03;13.50;;;10.48;;
79399;SDS011;68856;45.586;10.264;2023-04-30T08:25:30;14.85;;;10.30;;
79399;SDS011;68856;45.586;10.264;2023-04-30T08:27:56;14.40;;;9.63;;
79399;SDS011;68856;45.586;10.264;2023-04-30T08:30:23;13.57;;;10.20;;
79399;SDS011;68856;45.586;10.264;2023-04-30T08:32:49;12.05;;;9.20;;
79399;SDS011;68856;45.586;10.264;2023-04-30T08:35:16;15.43;;;9.30;;
79399;SDS011;68856;45.586;10.264;2023-04-30T08:37:42;15.05;;;10.15;;
79399;SDS011;68856;45.586;10.264;2023-04-30T08:40:08;14.25;;;10.38;;
79399;SDS011;68856;45.586;10.264;2023-04-30T08:42:36;12.15;;;9.30;;
79399;SDS011;68856;45.586;10.264;2023-04-30T08:45:07;11.77;;;9.00;;
79399;SDS011;68856;45.586;10.264;2023-04-30T08:47:36;12.45;;;9.00;;
79399;SDS011;68856;45.586;10.264;2023-04-30T08:50:04;10.70;;;7.97;;
79399;SDS011;68856;45.586;10.264;2023-04-30T08:52:30;14.32;;;10.07;;
79399;SDS011;68856;45.586;10.264;2023-04-30T08:55:02;11.95;;;9.55;;
79399;SDS011;68856;45.586;10.264;2023-04-30T08:59:59;13.45;;;8.00;;
79399;SDS011;68856;45.586;10.264;2023-04-30T09:02:26;13.25;;;8.05;;
79399;SDS011;68856;45.586;10.264;2023-04-30T09:04:52;13.88;;;8.40;;
79399;SDS011;68856;45.586;10.264;2023-04-30T09:07:18;13.63;;;8.25;;
79399;SDS011;68856;45.586;10.264;2023-04-30T09:09:48;11.85;;;8.80;;
79399;SDS011;68856;45.586;10.264;2023-04-30T09:12:17;11.88;;;8.05;;
79399;SDS011;68856;45.586;10.264;2023-04-30T09:15:00;10.23;;;7.78;;
79399;SDS011;68856;45.586;10.264;2023-04-30T09:17:28;10.27;;;7.57;;
79399;SDS011;68856;45.586;10.264;2023-04-30T09:20:05;9.35;;;7.88;;
79399;SDS011;68856;45.586;10.264;2023-04-30T09:22:36;10.75;;;7.35;;
79399;SDS011;68856;45.586;10.264;2023-04-30T09:25:03;14.15;;;7.38;;
79399;SDS011;68856;45.586;10.264;2023-04-30T09:27:31;9.55;;;7.65;;
79399;SDS011;68856;45.586;10.264;2023-04-30T09:29:57;7.00;;;6.30;;
79399;SDS011;68856;45.586;10.264;2023-04-30T09:32:23;10.93;;;6.70;;
79399;SDS011;68856;45.586;10.264;2023-04-30T09:34:50;6.82;;;6.13;;
79399;SDS011;68856;45.586;10.264;2023-04-30T09:37:16;8.18;;;6.32;;
79399;SDS011;68856;45.586;10.264;2023-04-30T09:39:49;8.13;;;6.47;;
79399;SDS011;68856;45.586;10.264;2023-04-30T09:42:17;10.68;;;6.95;;
79399;SDS011;68856;45.586;10.264;2023-04-30T09:44:44;8.60;;;6.70;;
79399;SDS011;68856;45.586;10.264;2023-04-30T09:47:11;8.90;;;6.68;;
79399;SDS011;68856;45.586;10.264;2023-04-30T09:49:42;8.77;;;5.88;;
79399;SDS011;68856;45.586;10.264;2023-04-30T09:52:13;8.70;;;6.82;;
79399;SDS011;68856;45.586;10.264;2023-04-30T09:54:40;10.30;;;6.93;;
79399;SDS011;68856;45.586;10.264;2023-04-30T09:57:09;8.82;;;6.63;;
79399;SDS011;68856;45.586;10.264;2023-04-30T09:59:36;7.97;;;5.97;;
79399;SDS011;68856;45.586;10.264;2023-04-30T10:02:07;7.55;;;6.80;;
79399;SDS011;68856;45.586;10.264;2023-04-30T10:04:34;7.85;;;6.63;;
79399;SDS011;68856;45.586;10.264;2023-04-30T10:07:03;11.60;;;6.78;;
79399;SDS011;68856;45.586;10.264;2023-04-30T10:09:40;9.05;;;6.65;;
79399;SDS011;68856;45.586;10.264;2023-04-30T10:12:43;8.25;;;6.80;;
79399;SDS011;68856;45.586;10.264;2023-04-30T10:15:16;7.20;;;5.82;;
79399;SDS011;68856;45.586;10.264;2023-04-30T10:17:49;8.02;;;6.72;;
79399;SDS011;68856;45.586;10.264;2023-04-30T10:20:26;8.88;;;6.00;;
79399;SDS011;68856;45.586;10.264;2023-04-30T10:22:53;8.93;;;6.82;;
79399;SDS011;68856;45.586;10.264;2023-04-30T10:25:20;9.93;;;6.22;;
79399;SDS011;68856;45.586;10.264;2023-04-30T10:27:47;7.15;;;6.20;;
79399;SDS011;68856;45.586;10.264;2023-04-30T10:30:14;9.18;;;7.00;;
79399;SDS011;68856;45.586;10.264;2023-04-30T10:35:32;8.45;;;6.40;;
79399;SDS011;68856;45.586;10.264;2023-04-30T10:38:17;8.10;;;6.18;;
79399;SDS011;68856;45.586;10.264;2023-04-30T10:41:00;6.57;;;5.88;;
79399;SDS011;68856;45.586;10.264;2023-04-30T10:43:30;8.80;;;6.43;;
79399;SDS011;68856;45.586;10.264;2023-04-30T10:45:59;11.18;;;6.63;;
79399;SDS011;68856;45.586;10.264;2023-04-30T10:48:26;8.50;;;6.32;;
79399;SDS011;68856;45.586;10.264;2023-04-30T10:50:55;9.07;;;6.38;;
79399;SDS011;68856;45.586;10.264;2023-04-30T10:53:23;10.55;;;7.13;;
79399;SDS011;68856;45.586;10.264;2023-04-30T10:55:59;8.07;;;7.03;;
79399;SDS011;68856;45.586;10.264;2023-04-30T10:58:32;7.83;;;5.77;;
79399;SDS011;68856;45.586;10.264;2023-04-30T11:01:04;8.80;;;6.40;;
79399;SDS011;68856;45.586;10.264;2023-04-30T11:03:33;6.30;;;5.45;;
79399;SDS011;68856;45.586;10.264;2023-04-30T11:06:06;6.53;;;5.38;;
79399;SDS011;68856;45.586;10.264;2023-04-30T11:08:37;9.50;;;7.38;;
79399;SDS011;68856;45.586;10.264;2023-04-30T11:11:07;9.05;;;6.35;;
79399;SDS011;68856;45.586;10.264;2023-04-30T11:13:39;9.55;;;6.95;;
79399;SDS011;68856;45.586;10.264;2023-04-30T11:16:08;6.72;;;5.55;;
79399;SDS011;68856;45.586;10.264;2023-04-30T11:18:44;9.02;;;6.30;;
79399;SDS011;68856;45.586;10.264;2023-04-30T11:21:11;6.93;;;5.72;;
79399;SDS011;68856;45.586;10.264;2023-04-30T11:23:41;6.30;;;4.25;;
79399;SDS011;68856;45.586;10.264;2023-04-30T11:26:08;9.07;;;4.68;;
79399;SDS011;68856;45.586;10.264;2023-04-30T11:28:35;4.40;;;3.65;;
79399;SDS011;68856;45.586;10.264;2023-04-30T11:31:02;3.55;;;3.22;;
79399;SDS011;68856;45.586;10.264;2023-04-30T11:33:29;4.80;;;3.38;;
79399;SDS011;68856;45.586;10.264;2023-04-30T11:35:59;4.38;;;3.70;;
79399;SDS011;68856;45.586;10.264;2023-04-30T11:38:27;3.20;;;2.90;;
79399;SDS011;68856;45.586;10.264;2023-04-30T11:40:55;3.10;;;2.80;;
79399;SDS011;68856;45.586;10.264;2023-04-30T11:43:28;3.55;;;3.05;;
79399;SDS011;68856;45.586;10.264;2023-04-30T11:46:00;3.70;;;3.03;;
79399;SDS011;68856;45.586;10.264;2023-04-30T11:48:40;7.43;;;3.00;;
79399;SDS011;68856;45.586;10.264;2023-04-30T11:51:22;3.17;;;2.88;;
79399;SDS011;68856;45.586;10.264;2023-04-30T11:53:49;2.97;;;2.58;;
79399;SDS011;68856;45.586;10.264;2023-04-30T11:56:21;3.20;;;2.55;;
79399;SDS011;68856;45.586;10.264;2023-04-30T11:58:48;5.38;;;2.80;;
79399;SDS011;68856;45.586;10.264;2023-04-30T12:01:20;5.85;;;2.70;;
79399;SDS011;68856;45.586;10.264;2023-04-30T12:03:50;2.28;;;2.08;;
79399;SDS011;68856;45.586;10.264;2023-04-30T12:06:20;2.50;;;2.30;;
79399;SDS011;68856;45.586;10.264;2023-04-30T12:08:47;2.00;;;1.45;;
79399;SDS011;68856;45.586;10.264;2023-04-30T12:11:23;1.60;;;1.50;;
79399;SDS011;68856;45.586;10.264;2023-04-30T12:13:51;4.60;;;1.63;;
79399;SDS011;68856;45.586;10.264;2023-04-30T12:16:19;1.45;;;1.35;;
79399;SDS011;68856;45.586;10.264;2023-04-30T12:18:46;2.83;;;1.38;;
79399;SDS011;68856;45.586;10.264;2023-04-30T12:21:12;1.27;;;1.17;;
79399;SDS011;68856;45.586;10.264;2023-04-30T12:23:39;2.70;;;1.13;;
79399;SDS011;68856;45.586;10.264;2023-04-30T12:26:06;4.55;;;1.20;;
79399;SDS011;68856;45.586;10.264;2023-04-30T12:28:33;2.13;;;1.30;;
79399;SDS011;68856;45.586;10.264;2023-04-30T12:31:00;1.30;;;1.20;;
79399;SDS011;68856;45.586;10.264;2023-04-30T12:33:29;1.75;;;1.20;;
79399;SDS011;68856;45.586;10.264;2023-04-30T12:35:56;2.95;;;1.23;;
79399;SDS011;68856;45.586;10.264;2023-04-30T12:38:26;2.80;;;1.35;;
79399;SDS011;68856;45.586;10.264;2023-04-30T12:40:52;2.25;;;1.58;;
79399;SDS011;68856;45.586;10.264;2023-04-30T12:43:18;1.30;;;1.20;;
79399;SDS011;68856;45.586;10.264;2023-04-30T12:45:46;1.10;;;1.00;;
79399;SDS011;68856;45.586;10.264;2023-04-30T12:48:13;1.42;;;1.05;;
79399;SDS011;68856;45.586;10.264;2023-04-30T12:50:39;1.30;;;1.10;;
79399;SDS011;68856;45.586;10.264;2023-04-30T12:53:07;1.23;;;1.10;;
79399;SDS011;68856;45.586;10.264;2023-04-30T12:55:33;1.90;;;1.08;;
79399;SDS011;68856;45.586;10.264;2023-04-30T12:58:08;1.60;;;1.08;;
79399;SDS011;68856;45.586;10.264;2023-04-30T13:03:14;3.30;;;1.10;;
79399;SDS011;68856;45.586;10.264;2023-04-30T13:05:45;1.63;;;1.50;;
79399;SDS011;68856;45.586;10.264;2023-04-30T13:08:18;1.15;;;1.05;;
79399;SDS011;68856;45.586;10.264;2023-04-30T13:10:45;3.15;;;1.17;;
79399;SDS011;68856;45.586;10.264;2023-04-30T13:13:13;1.75;;;1.25;;
79399;SDS011;68856;45.586;10.264;2023-04-30T13:15:43;3.33;;;2.53;;
79399;SDS011;68856;45.586;10.264;2023-04-30T13:18:09;1.35;;;0.93;;
79399;SDS011;68856;45.586;10.264;2023-04-30T13:20:36;1.85;;;1.08;;
79399;SDS011;68856;45.586;10.264;2023-04-30T13:23:03;0.98;;;0.98;;
79399;SDS011;68856;45.586;10.264;2023-04-30T13:25:31;1.10;;;1.00;;
79399;SDS011;68856;45.586;10.264;2023-04-30T13:27:58;0.68;;;0.68;;
79399;SDS011;68856;45.586;10.264;2023-04-30T13:30:24;1.30;;;1.20;;
79399;SDS011;68856;45.586;10.264;2023-04-30T13:32:50;3.40;;;1.50;;
79399;SDS011;68856;45.586;10.264;2023-04-30T13:35:17;1.42;;;1.33;;
79399;SDS011;68856;45.586;10.264;2023-04-30T13:37:44;1.10;;;1.00;;
79399;SDS011;68856;45.586;10.264;2023-04-30T13:40:16;1.27;;;1.17;;
79399;SDS011;68856;45.586;10.264;2023-04-30T13:42:43;0.80;;;0.80;;
79399;SDS011;68856;45.586;10.264;2023-04-30T13:45:11;1.15;;;0.70;;
79399;SDS011;68856;45.586;10.264;2023-04-30T13:47:37;0.90;;;0.85;;
79399;SDS011;68856;45.586;10.264;2023-04-30T13:50:04;0.73;;;0.73;;
79399;SDS011;68856;45.586;10.264;2023-04-30T13:52:32;5.57;;;2.42;;
79399;SDS011;68856;45.586;10.264;2023-04-30T13:54:58;2.05;;;0.60;;
79399;SDS011;68856;45.586;10.264;2023-04-30T13:57:25;0.80;;;0.80;;
79399;SDS011;68856;45.586;10.264;2023-04-30T13:59:54;0.93;;;0.90;;
79399;SDS011;68856;45.586;10.264;2023-04-30T14:02:20;1.90;;;0.88;;
79399;SDS011;68856;45.586;10.264;2023-04-30T14:04:47;0.77;;;0.77;;
79399;SDS011;68856;45.586;10.264;2023-04-30T14:07:13;2.08;;;0.85;;
79399;SDS011;68856;45.586;10.264;2023-04-30T14:09:39;1.23;;;1.10;;
79399;SDS011;68856;45.586;10.264;2023-04-30T14:12:05;2.47;;;0.70;;
79399;SDS011;68856;45.586;10.264;2023-04-30T14:14:31;0.80;;;0.80;;
79399;SDS011;68856;45.586;10.264;2023-04-30T14:16:58;1.58;;;0.93;;
79399;SDS011;68856;45.586;10.264;2023-04-30T14:19:24;0.88;;;0.88;;
79399;SDS011;68856;45.586;10.264;2023-04-30T14:21:50;1.83;;;1.17;;
79399;SDS011;68856;45.586;10.264;2023-04-30T14:24:17;2.20;;;0.80;;
79399;SDS011;68856;45.586;10.264;2023-04-30T14:26:44;1.00;;;0.90;;
79399;SDS011;68856;45.586;10.264;2023-04-30T14:29:10;1.13;;;0.80;;
79399;SDS011;68856;45.586;10.264;2023-04-30T14:31:37;2.17;;;1.10;;
79399;SDS011;68856;45.586;10.264;2023-04-30T14:34:03;2.03;;;0.95;;
79399;SDS011;68856;45.586;10.264;2023-04-30T14:36:29;2.95;;;0.93;;
79399;SDS011;68856;45.586;10.264;2023-04-30T14:38:55;2.08;;;0.90;;
79399;SDS011;68856;45.586;10.264;2023-04-30T14:41:22;1.83;;;0.88;;
79399;SDS011;68856;45.586;10.264;2023-04-30T14:43:48;2.05;;;1.17;;
79399;SDS011;68856;45.586;10.264;2023-04-30T14:46:16;1.23;;;1.10;;
79399;SDS011;68856;45.586;10.264;2023-04-30T14:48:43;2.17;;;1.30;;
79399;SDS011;68856;45.586;10.264;2023-04-30T14:51:09;1.67;;;1.05;;
79399;SDS011;68856;45.586;10.264;2023-04-30T14:53:35;2.30;;;1.10;;
79399;SDS011;68856;45.586;10.264;2023-04-30T14:56:01;1.13;;;1.10;;